createdAt,value
2023-01-30T00:00:13.492Z,85.09
2023-01-30T00:05:17.168Z,85.77
2023-01-30T00:10:20.505Z,85.33
2023-01-30T00:15:23.482Z,84.90
2023-01-30T00:20:26.658Z,84.25
2023-01-30T00:25:31.711Z,84.96
2023-01-30T00:30:34.879Z,84.95
2023-01-30T00:35:37.976Z,85.11
2023-01-30T00:40:42.161Z,84.29
2023-01-30T00:46:03.967Z,83.97
2023-01-30T00:51:07.367Z,84.25
2023-01-30T00:56:11.425Z,84.48
2023-01-30T01:01:14.861Z,83.88
2023-01-30T01:06:18.371Z,84.02
2023-01-30T01:11:27.392Z,83.85
2023-01-30T01:16:32.227Z,83.77
2023-01-30T01:21:35.732Z,83.51
2023-01-30T01:26:42.071Z,83.58
2023-01-30T01:31:47.452Z,83.85
2023-01-30T01:36:53.758Z,84.06
2023-01-30T01:41:57.708Z,84.48
2023-01-30T01:47:00.777Z,84.76
2023-01-30T01:52:06.782Z,84.98
2023-01-30T01:57:18.704Z,84.64
2023-01-30T02:02:22.630Z,84.84
2023-01-30T02:07:29.750Z,85.47
2023-01-30T02:12:34.183Z,85.20
2023-01-30T02:17:37.952Z,84.62
2023-01-30T02:23:18.205Z,84.89
2023-01-30T02:28:39.999Z,85.11
2023-01-30T02:34:11.801Z,85.43
2023-01-30T02:39:39.221Z,85.35
2023-01-30T02:45:01.585Z,85.40
2023-01-30T02:50:14.642Z,85.19
2023-01-30T02:55:27.243Z,85.40
2023-01-30T03:00:38.953Z,85.49
2023-01-30T03:06:17.090Z,84.95
2023-01-30T03:11:25.357Z,85.62
2023-01-30T03:16:39.966Z,86.24
2023-01-30T03:21:45.260Z,85.99
2023-01-30T03:27:11.620Z,86.49
2023-01-30T03:32:14.566Z,85.94
2023-01-30T03:37:18.220Z,86.00
2023-01-30T03:42:21.499Z,86.34
2023-01-30T03:47:25.403Z,86.15
2023-01-30T03:52:30.086Z,86.50
2023-01-30T03:57:33.070Z,87.39
2023-01-30T04:02:39.144Z,87.15
2023-01-30T04:07:42.213Z,86.63
2023-01-30T04:12:47.821Z,86.24
2023-01-30T04:17:52.045Z,86.11
2023-01-30T04:23:31.054Z,86.50
2023-01-30T04:28:35.171Z,87.01
2023-01-30T04:33:40.419Z,87.06
2023-01-30T04:38:45.384Z,86.82
2023-01-30T04:43:48.965Z,86.80
2023-01-30T04:49:10.330Z,86.38
2023-01-30T04:54:13.720Z,85.92
2023-01-30T04:59:18.472Z,87.18
2023-01-30T05:04:24.418Z,87.62
2023-01-30T05:09:27.963Z,87.23
2023-01-30T05:14:30.928Z,88.14
2023-01-30T05:19:34.316Z,88.40
2023-01-30T05:24:37.366Z,88.85
2023-01-30T05:29:40.407Z,88.28
2023-01-30T05:34:43.614Z,88.58
2023-01-30T05:39:46.634Z,89.02
2023-01-30T05:44:49.939Z,89.48
2023-01-30T05:49:53.713Z,89.34
2023-01-30T05:54:56.739Z,89.43
2023-01-30T06:00:00.928Z,89.64
2023-01-30T06:05:04.265Z,90.04
2023-01-30T06:10:08.217Z,90.14
2023-01-30T06:15:11.963Z,90.40
2023-01-30T06:20:16.056Z,90.07
2023-01-30T06:25:19.780Z,89.93
2023-01-30T06:30:24.331Z,89.72
2023-01-30T06:35:27.931Z,89.67
2023-01-30T06:40:31.503Z,89.75
2023-01-30T06:45:34.958Z,89.60
2023-01-30T06:50:38.820Z,89.12
2023-01-30T06:55:42.787Z,88.97
2023-01-30T07:00:47.193Z,88.56
2023-01-30T07:05:50.299Z,92.55
2023-01-30T07:10:53.841Z,87.10
2023-01-30T07:15:57.909Z,68.63
2023-01-30T07:21:01.578Z,55.08
2023-01-30T07:26:06.386Z,47.14
2023-01-30T07:31:09.442Z,62.20
2023-01-30T07:36:12.910Z,50.67
2023-01-30T07:41:16.388Z,55.51
2023-01-30T07:46:19.617Z,50.81
2023-01-30T07:51:23.078Z,47.15
2023-01-30T07:56:26.537Z,45.43
2023-01-30T08:01:30.129Z,45.79
2023-01-30T08:06:37.400Z,44.06
2023-01-30T08:11:40.828Z,43.40
2023-01-30T08:16:43.960Z,41.60
2023-01-30T08:21:47.028Z,39.81
2023-01-30T08:26:50.623Z,39.80
2023-01-30T08:31:58.811Z,40.74
2023-01-30T08:37:02.220Z,40.63
2023-01-30T08:42:05.939Z,41.00
2023-01-30T08:47:09.088Z,40.41
2023-01-30T08:52:12.804Z,40.72
2023-01-30T08:57:16.605Z,39.96
2023-01-30T09:02:20.558Z,40.43
2023-01-30T09:07:23.709Z,39.57
2023-01-30T09:12:27.738Z,36.59
2023-01-30T09:17:30.876Z,39.38
2023-01-30T09:22:34.618Z,38.13
2023-01-30T09:27:37.793Z,40.59
2023-01-30T09:32:41.323Z,40.05
2023-01-30T09:37:53.596Z,43.70
2023-01-30T09:43:18.915Z,42.47
2023-01-30T09:48:32.815Z,41.27
2023-01-30T09:53:59.488Z,42.79
2023-01-30T09:59:05.699Z,42.85
2023-01-30T10:04:21.812Z,40.97
2023-01-30T10:09:51.958Z,43.07
2023-01-30T10:15:22.784Z,42.48
2023-01-30T10:20:49.547Z,41.70
2023-01-30T10:26:00.354Z,42.31
2023-01-30T10:31:26.697Z,40.12
2023-01-30T10:36:57.189Z,40.63
2023-01-30T10:42:13.410Z,39.99
2023-01-30T10:47:34.748Z,39.60
2023-01-30T10:52:54.227Z,41.33
2023-01-30T10:58:23.850Z,42.70
2023-01-30T11:03:33.316Z,45.62
2023-01-30T11:08:36.845Z,45.06
2023-01-30T11:13:39.843Z,46.28
2023-01-30T11:19:18.757Z,50.58
2023-01-30T11:24:17.820Z,46.06
2023-01-30T11:29:30.363Z,47.90
2023-01-30T11:34:33.983Z,49.15
2023-01-30T11:39:37.733Z,50.18
2023-01-30T11:44:42.792Z,51.74
2023-01-30T11:50:11.988Z,52.17
2023-01-30T11:55:21.444Z,50.24
2023-01-30T12:00:37.450Z,50.36
2023-01-30T12:05:44.543Z,49.13
2023-01-30T12:10:52.249Z,50.18
2023-01-30T12:16:26.096Z,48.22
2023-01-30T12:21:56.730Z,51.01
2023-01-30T12:27:21.991Z,54.58
2023-01-30T12:32:29.076Z,53.57
2023-01-30T12:38:16.420Z,51.55
2023-01-30T12:43:57.089Z,46.39
2023-01-30T12:49:22.192Z,47.56
2023-01-30T12:54:54.134Z,48.26
2023-01-30T13:00:22.274Z,49.72
2023-01-30T13:05:28.702Z,46.71
2023-01-30T13:10:33.829Z,44.04
2023-01-30T13:15:59.670Z,46.73
2023-01-30T13:21:14.221Z,41.46
2023-01-30T13:26:28.895Z,40.09
2023-01-30T13:31:39.266Z,44.08
2023-01-30T13:36:52.507Z,46.60
2023-01-30T13:41:58.078Z,42.85
2023-01-30T13:47:19.294Z,40.68
2023-01-30T13:53:03.117Z,40.96
2023-01-30T13:58:32.445Z,40.81
2023-01-30T14:03:35.595Z,40.46
2023-01-30T14:08:45.376Z,43.23
2023-01-30T14:13:53.900Z,44.77
2023-01-30T14:18:57.316Z,40.37
2023-01-30T14:24:02.840Z,40.51
2023-01-30T14:29:08.536Z,42.07
2023-01-30T14:34:45.992Z,42.27
2023-01-30T14:39:54.231Z,39.49
2023-01-30T14:44:58.947Z,39.99
2023-01-30T14:50:03.061Z,41.06
2023-01-30T14:55:15.554Z,41.21
2023-01-30T15:00:21.265Z,41.68
2023-01-30T15:05:37.575Z,40.96
2023-01-30T15:10:59.737Z,39.84
2023-01-30T15:16:23.798Z,45.38
2023-01-30T15:21:49.311Z,48.58
2023-01-30T15:27:21.001Z,50.10
2023-01-30T15:32:26.738Z,50.22
2023-01-30T15:37:37.428Z,51.69
2023-01-30T15:43:02.389Z,52.03
2023-01-30T15:48:29.332Z,54.13
2023-01-30T15:53:40.185Z,55.23
2023-01-30T15:58:44.965Z,57.20
2023-01-30T16:03:50.428Z,56.79
2023-01-30T16:09:03.189Z,58.62
2023-01-30T16:14:12.387Z,59.61
2023-01-30T16:19:37.628Z,60.38
2023-01-30T16:24:50.059Z,63.00
2023-01-30T16:29:58.631Z,64.35
2023-01-30T16:35:28.293Z,67.38
2023-01-30T16:40:44.574Z,69.79
2023-01-30T16:45:47.649Z,74.02
2023-01-30T16:51:19.507Z,68.68
2023-01-30T16:56:23.464Z,69.18
2023-01-30T17:01:42.112Z,69.00
2023-01-30T17:06:53.464Z,70.19
2023-01-30T17:11:56.466Z,71.08
2023-01-30T17:17:04.504Z,72.17
2023-01-30T17:22:24.648Z,71.98
2023-01-30T17:27:31.727Z,72.04
2023-01-30T17:32:35.139Z,72.07
2023-01-30T17:37:38.217Z,70.05
2023-01-30T17:42:41.216Z,70.23
2023-01-30T17:47:44.739Z,70.20
2023-01-30T17:52:51.287Z,68.99
2023-01-30T17:57:56.837Z,71.95
2023-01-30T18:03:00.294Z,72.47
2023-01-30T18:08:03.789Z,71.88
2023-01-30T18:13:07.248Z,73.86
2023-01-30T18:18:17.793Z,72.05
2023-01-30T18:23:22.482Z,71.22
2023-01-30T18:28:25.825Z,72.00
2023-01-30T18:33:29.509Z,71.11
2023-01-30T18:38:32.589Z,71.33
2023-01-30T18:43:36.138Z,73.38
2023-01-30T18:48:39.236Z,73.74
2023-01-30T18:53:44.319Z,76.51
2023-01-30T18:58:50.003Z,75.27
2023-01-30T19:04:02.750Z,75.61
2023-01-30T19:09:12.868Z,76.60
2023-01-30T19:14:16.443Z,78.38
2023-01-30T19:19:19.407Z,76.96
2023-01-30T19:24:23.907Z,78.38
2023-01-30T19:29:27.036Z,80.40
2023-01-30T19:34:30.170Z,80.35
2023-01-30T19:39:33.194Z,78.11
2023-01-30T19:44:37.981Z,76.56
2023-01-30T19:49:42.480Z,74.69
2023-01-30T19:54:47.811Z,74.75
2023-01-30T19:59:51.348Z,75.02
2023-01-30T20:04:55.320Z,75.47
2023-01-30T20:09:59.018Z,75.83
2023-01-30T20:15:03.747Z,75.78
2023-01-30T20:20:08.331Z,76.28
2023-01-30T20:25:17.205Z,76.16
2023-01-30T20:30:22.460Z,76.97
2023-01-30T20:35:27.460Z,76.85
2023-01-30T20:40:31.351Z,77.97
2023-01-30T20:45:34.359Z,77.53
2023-01-30T20:50:37.349Z,76.69
2023-01-30T20:55:42.409Z,77.21
2023-01-30T21:00:45.869Z,78.11
2023-01-30T21:05:59.567Z,78.97
2023-01-30T21:11:14.365Z,77.21
2023-01-30T21:16:24.028Z,77.88
2023-01-30T21:21:34.560Z,78.38
2023-01-30T21:26:41.400Z,77.93
2023-01-30T21:31:45.531Z,77.99
2023-01-30T21:37:09.262Z,78.90
2023-01-30T21:42:31.063Z,79.64
2023-01-30T21:47:34.735Z,79.65
2023-01-30T21:52:39.073Z,79.82
2023-01-30T21:57:42.424Z,79.28
2023-01-30T22:02:49.390Z,81.34
2023-01-30T22:07:52.424Z,81.08
2023-01-30T22:12:56.416Z,81.49
2023-01-30T22:18:00.668Z,81.98
2023-01-30T22:23:04.690Z,82.76
2023-01-30T22:28:10.224Z,83.10
2023-01-30T22:33:13.599Z,81.70
2023-01-30T22:38:17.304Z,80.95
2023-01-30T22:43:20.785Z,80.76
2023-01-30T22:48:24.317Z,81.23
2023-01-30T22:53:27.990Z,86.20
2023-01-30T22:58:31.508Z,88.78
2023-01-30T23:03:36.858Z,90.77
2023-01-30T23:08:42.100Z,92.00
2023-01-30T23:13:48.080Z,92.95
2023-01-30T23:18:59.045Z,93.80
2023-01-30T23:24:06.912Z,93.95
2023-01-30T23:29:13.687Z,94.44
2023-01-30T23:34:19.228Z,94.68
2023-01-30T23:39:23.241Z,95.26
2023-01-30T23:44:26.309Z,95.08
2023-01-30T23:49:29.352Z,95.31
2023-01-30T23:54:32.410Z,95.63
2023-01-30T23:59:35.598Z,95.22
